Krasnovishersk, Russia
Current Conditions -  °F | °C
As of 10:00 PM on Thursday 27 Nov 2014 (Local Time) from USPP Reporting Station
Broken Clouds Broken Clouds  
Wind Chill: -2°   Ceiling: 3800
Heat Index:   Visibility: 5mi
Dew Point:   Wind: 4mph
Humidity: 92%   Direction: 110°ESE
Pressure: 30.5"   Gusts: NA
Location:  60.4°N, 57.08°E
Report Text: USPP 271700Z 11002MPS 8000 BKN038 M14/M15 Q1033 21350345 NOSIGRMK QFE764/1018
Loading
Personal Weather Stations






























Interactive Weather Map New forecast layout! Learn more

10-Day Weather Forecast

Advertisements
Track Severe Weather on mobile